Time;durP1;ratioP1;P1;durP2;ratioP2;P2;SDS_P1;SDS_P2;PMS_P1;PMS_P2;Temp;Humidity;BMP_temperature;BMP_pressure;BME280_temperature;BME280_humidity;BME280_pressure;Samples;Min_cycle;Max_cycle;Signal;HPM_P1;HPM_P2
2022/06/16 00:02:05;;;;;;;;;9.33;8.67;;;;;23.29;41.71;101185.53;5038395;28;45274;-73
2022/06/16 00:04:30;;;;;;;;;11.67;10.67;;;;;23.50;42.06;101225.09;5059847;28;45577;-72
2022/06/16 00:06:56;;;;;;;;;11.00;10.00;;;;;23.65;41.80;101243.84;5041536;28;45555;-73
2022/06/16 00:09:23;;;;;;;;;11.33;10.00;;;;;23.86;42.02;101289.66;5059545;28;46409;-75
2022/06/16 00:11:49;;;;;;;;;10.00;9.67;;;;;23.73;41.90;101273.44;5059636;28;45515;-71
2022/06/16 00:14:14;;;;;;;;;13.33;12.67;;;;;23.01;42.09;101166.06;5041287;28;45537;-75
2022/06/16 00:16:40;;;;;;;;;11.33;10.67;;;;;23.68;42.10;101294.97;5059841;28;45479;-73
2022/06/16 00:19:05;;;;;;;;;10.00;10.00;;;;;23.70;42.45;101290.16;5046766;28;46455;-74
2022/06/16 00:21:31;;;;;;;;;16.67;13.67;;;;;23.71;42.66;101291.00;5030041;28;45302;-72
2022/06/16 00:23:56;;;;;;;;;10.67;9.33;;;;;23.55;42.06;101273.28;5062452;28;45221;-72
2022/06/16 00:26:25;;;;;;;;;13.00;12.67;;;;;23.48;42.18;101262.47;5059565;28;45211;-73
2022/06/16 00:28:51;;;;;;;;;13.33;12.67;;;;;23.71;41.91;101296.41;5061574;28;46532;-75
2022/06/16 00:31:20;;;;;;;;;13.33;11.00;;;;;23.68;42.34;101308.56;5042832;28;45293;-75
2022/06/16 00:33:46;;;;;;;;;12.33;12.33;;;;;22.47;42.73;101110.38;5023025;28;45244;-74
2022/06/16 00:36:12;;;;;;;;;14.33;13.33;;;;;23.62;42.77;101303.97;5021824;28;45544;-75
2022/06/16 00:38:38;;;;;;;;;12.67;10.67;;;;;23.50;42.87;101289.41;5020486;28;46571;-73
2022/06/16 00:41:04;;;;;;;;;11.00;10.67;;;;;23.21;42.93;101256.31;5021038;28;45694;-72
2022/06/16 00:43:30;;;;;;;;;9.33;8.67;;;;;23.53;43.25;101310.69;5057164;28;45332;-74
2022/06/16 00:46:02;;;;;;;;;10.33;10.33;;;;;23.46;43.68;101331.59;5046134;28;45487;-75
2022/06/16 00:48:44;;;;;;;;;10.00;8.33;;;;;22.96;43.30;101241.81;5043867;28;46408;-73
2022/06/16 00:51:22;;;;;;;;;14.67;14.67;;;;;23.37;44.02;101323.66;5040307;28;45351;-71
2022/06/16 00:53:48;;;;;;;;;12.33;12.33;;;;;22.83;44.71;101268.97;5059792;28;45309;-73
2022/06/16 00:56:18;;;;;;;;;11.33;10.33;;;;;23.15;44.83;101330.41;5040546;28;45354;-72
2022/06/16 00:58:48;;;;;;;;;10.33;10.33;;;;;23.13;44.24;101327.09;5058519;28;46134;-72
2022/06/16 01:01:18;;;;;;;;;12.33;12.33;;;;;23.21;44.26;101328.72;5056146;28;45594;-72
2022/06/16 01:06:29;;;;;;;;;11.67;11.67;;;;;23.18;44.31;101346.25;5057537;28;45325;-74
2022/06/16 01:09:03;;;;;;;;;13.67;13.33;;;;;23.21;44.26;101345.84;5058162;28;45686;-73
2022/06/16 01:14:57;;;;;;;;;15.33;14.00;;;;;23.08;44.88;101345.88;5058125;28;45279;-72
2022/06/16 01:17:42;;;;;;;;;14.67;14.67;;;;;23.06;45.26;101356.13;5058753;28;45471;-74
2022/06/16 01:20:43;;;;;;;;;14.33;12.67;;;;;22.94;45.87;101358.63;5037311;28;45683;-71
2022/06/16 01:23:44;;;;;;;;;14.00;13.00;;;;;22.87;45.94;101359.69;5053377;28;45340;-73
2022/06/16 01:26:15;;;;;;;;;15.33;11.67;;;;;22.84;45.89;101363.66;5058323;28;45384;-72
2022/06/16 01:29:08;;;;;;;;;13.33;12.67;;;;;22.80;46.14;101361.50;5046841;28;45316;-73
2022/06/16 01:31:59;;;;;;;;;12.67;11.67;;;;;22.68;46.57;101366.75;5036850;28;46324;-73
2022/06/16 01:34:34;;;;;;;;;18.00;15.67;;;;;21.99;46.67;101264.94;5038078;28;45403;-74
2022/06/16 01:37:18;;;;;;;;;11.00;9.00;;;;;22.67;46.66;101376.75;5038436;28;45315;-73
2022/06/16 01:40:00;;;;;;;;;15.67;13.67;;;;;22.68;46.60;101372.16;5038075;28;45214;-72
2022/06/16 01:42:34;;;;;;;;;14.67;12.00;;;;;22.67;46.52;101374.03;5036013;28;48099;-73
2022/06/16 01:45:14;;;;;;;;;17.67;15.33;;;;;22.61;46.67;101364.00;5044562;28;45286;-73
2022/06/16 01:47:48;;;;;;;;;15.33;13.00;;;;;22.63;46.71;101383.63;5058158;28;45383;-71
2022/06/16 01:50:18;;;;;;;;;14.33;14.33;;;;;22.61;46.68;101377.56;5037688;28;45562;-74
2022/06/16 01:53:00;;;;;;;;;12.67;12.67;;;;;22.54;47.08;101376.75;5038129;28;47264;-74
2022/06/16 01:55:39;;;;;;;;;19.67;15.67;;;;;21.13;47.17;101152.97;5037649;28;45426;-71
2022/06/16 01:58:28;;;;;;;;;14.33;14.00;;;;;21.61;47.66;101256.53;5038646;28;45276;-72
2022/06/16 02:00:58;;;;;;;;;13.33;13.33;;;;;21.04;47.57;101165.03;5037633;28;45203;-74
2022/06/16 02:03:38;;;;;;;;;19.33;15.00;;;;;22.03;47.32;101317.69;5037151;28;46208;-71
2022/06/16 02:06:20;;;;;;;;;17.33;14.00;;;;;21.72;47.27;101268.66;5037124;28;45339;-73
2022/06/16 02:08:50;;;;;;;;;14.00;13.67;;;;;21.36;46.98;101202.16;5037332;28;45345;-72
2022/06/16 02:11:29;;;;;;;;;16.00;15.00;;;;;21.62;47.11;101246.56;5056577;28;45385;-71
2022/06/16 02:13:58;;;;;;;;;12.67;12.67;;;;;22.58;47.33;101407.78;5057539;28;46536;-72
2022/06/16 02:16:28;;;;;;;;;19.33;16.33;;;;;22.51;47.63;101401.53;5057292;28;45260;-74
2022/06/16 02:18:55;;;;;;;;;17.00;15.67;;;;;22.45;47.44;101394.25;5047945;28;45495;-73
2022/06/16 02:21:33;;;;;;;;;19.67;15.00;;;;;22.49;47.48;101406.34;5037175;28;45434;-73
2022/06/16 02:23:59;;;;;;;;;18.00;15.00;;;;;21.84;47.49;101291.41;5036837;28;45596;-73
2022/06/16 02:26:25;;;;;;;;;16.33;16.33;;;;;22.32;47.52;101386.09;5036988;28;45333;-72
2022/06/16 02:28:57;;;;;;;;;19.00;17.00;;;;;21.93;47.88;101319.94;5036960;28;45386;-71
2022/06/16 02:31:34;;;;;;;;;17.00;14.33;;;;;22.44;47.79;101398.00;5036580;28;45641;-74
2022/06/16 02:34:02;;;;;;;;;16.67;15.00;;;;;22.51;47.62;101403.41;5036036;28;47827;-73
2022/06/16 02:36:56;;;;;;;;;12.33;12.33;;;;;22.34;47.01;101365.03;5036941;28;45534;-73
2022/06/16 02:39:54;;;;;;;;;15.33;14.67;;;;;22.62;46.86;101417.19;5032437;28;45490;-72
2022/06/16 02:42:29;;;;;;;;;11.67;11.67;;;;;22.63;46.89;101404.50;5056388;28;45253;-72
2022/06/16 02:45:13;;;;;;;;;12.33;12.00;;;;;22.51;46.69;101382.56;5060415;28;45340;-74
2022/06/16 02:47:59;;;;;;;;;12.00;12.00;;;;;22.69;46.59;101412.63;5060443;28;45280;-72
2022/06/16 02:50:45;;;;;;;;;13.33;11.67;;;;;22.56;46.43;101390.91;5040240;28;45535;-74
2022/06/16 02:53:25;;;;;;;;;13.67;13.00;;;;;22.72;46.90;101409.50;5022364;28;45299;-72
2022/06/16 02:55:58;;;;;;;;;13.33;12.33;;;;;22.65;46.84;101389.69;5038669;28;45949;-74
2022/06/16 02:58:25;;;;;;;;;15.00;15.00;;;;;22.65;46.61;101395.09;5040079;28;45507;-72
2022/06/16 03:00:55;;;;;;;;;14.33;13.33;;;;;22.51;46.32;101363.59;5039742;28;45470;-74
2022/06/16 03:03:30;;;;;;;;;13.33;11.33;;;;;22.41;46.48;101365.88;5040229;28;45350;-72
2022/06/16 03:05:57;;;;;;;;;11.67;11.00;;;;;22.51;46.74;101392.59;5039938;28;45623;-73
2022/06/16 03:08:25;;;;;;;;;14.33;14.33;;;;;20.60;46.93;101104.13;5039848;28;45289;-71
2022/06/16 03:10:51;;;;;;;;;14.33;13.67;;;;;22.56;46.64;101407.16;5039658;28;45368;-73
2022/06/16 03:13:26;;;;;;;;;14.33;13.33;;;;;22.49;47.08;101400.91;5022326;28;45415;-73
2022/06/16 03:15:54;;;;;;;;;14.00;12.67;;;;;22.63;47.12;101424.28;5039579;28;46570;-72
2022/06/16 03:18:20;;;;;;;;;18.33;15.00;;;;;22.51;46.95;101415.09;5046286;28;45524;-73
2022/06/16 03:20:47;;;;;;;;;13.33;12.67;;;;;22.38;46.98;101401.50;5060037;28;45264;-73
2022/06/16 03:23:13;;;;;;;;;13.67;13.67;;;;;22.49;46.98;101411.75;5060625;28;45193;-73
2022/06/16 03:25:39;;;;;;;;;16.33;14.00;;;;;22.42;46.75;101405.47;5061423;28;46625;-73
2022/06/16 03:28:05;;;;;;;;;15.00;14.33;;;;;22.61;46.83;101433.66;5042396;28;45496;-73
2022/06/16 03:30:31;;;;;;;;;18.00;15.67;;;;;22.16;47.01;101369.16;5059909;28;45268;-72
2022/06/16 03:32:56;;;;;;;;;16.00;15.00;;;;;22.16;46.86;101371.88;5041676;28;45440;-73
2022/06/16 03:35:22;;;;;;;;;12.00;12.00;;;;;21.92;46.92;101337.22;5059594;28;46634;-71
2022/06/16 03:37:47;;;;;;;;;14.67;13.33;;;;;22.52;47.20;101438.44;5058827;28;45443;-73
2022/06/16 03:40:13;;;;;;;;;14.33;14.00;;;;;22.42;47.16;101435.28;5041827;28;45317;-71
2022/06/16 03:42:40;;;;;;;;;15.33;15.00;;;;;22.31;47.50;101414.22;5042082;28;45440;-71
2022/06/16 03:45:06;;;;;;;;;15.67;14.00;;;;;21.85;47.15;101339.09;5058257;28;47878;-73
2022/06/16 03:47:32;;;;;;;;;13.33;11.33;;;;;22.49;47.34;101441.56;5038733;28;45309;-76
2022/06/16 03:49:57;;;;;;;;;13.67;13.67;;;;;22.50;47.18;101435.09;5039029;28;45658;-73
2022/06/16 03:52:22;;;;;;;;;16.67;16.67;;;;;22.35;47.06;101415.47;5039501;28;45485;-73
2022/06/16 03:54:48;;;;;;;;;14.67;14.33;;;;;21.71;47.23;101311.13;5037353;28;46986;-74
2022/06/16 03:57:14;;;;;;;;;15.00;14.00;;;;;21.72;47.28;101311.97;5038972;28;45280;-74
2022/06/16 03:59:39;;;;;;;;;18.67;17.67;;;;;22.53;47.43;101452.81;5060298;28;45256;-74
2022/06/16 04:02:05;;;;;;;;;14.67;14.67;;;;;22.51;47.11;101452.19;5059843;28;45222;-71
2022/06/16 04:04:30;;;;;;;;;11.67;11.67;;;;;21.71;47.32;101337.34;5059124;28;45487;-71
2022/06/16 04:06:56;;;;;;;;;18.67;14.00;;;;;22.38;47.25;101447.56;5058867;28;45285;-73
2022/06/16 04:09:21;;;;;;;;;15.67;15.33;;;;;22.42;47.07;101454.25;5040890;28;45273;-73
2022/06/16 04:11:46;;;;;;;;;12.33;11.33;;;;;22.36;47.15;101438.81;5059523;28;45437;-75
2022/06/16 04:14:14;;;;;;;;;15.00;14.00;;;;;22.45;47.33;101454.69;5059499;28;47156;-72
2022/06/16 04:16:45;;;;;;;;;20.00;17.67;;;;;22.29;47.33;101435.25;5040805;28;45344;-74
2022/06/16 04:19:17;;;;;;;;;15.00;14.33;;;;;22.13;47.38;101407.50;5045575;28;45605;-70
2022/06/16 04:21:44;;;;;;;;;17.67;17.33;;;;;22.29;47.16;101429.84;5039088;28;45258;-72
2022/06/16 04:24:10;;;;;;;;;16.67;14.67;;;;;22.48;47.26;101464.28;5037809;28;46542;-74
2022/06/16 04:26:37;;;;;;;;;16.33;15.67;;;;;22.50;47.18;101467.63;5020695;28;46678;-72
2022/06/16 04:29:04;;;;;;;;;17.33;17.33;;;;;22.50;47.47;101466.78;5046018;28;45471;-72
2022/06/16 04:31:30;;;;;;;;;14.00;13.67;;;;;22.48;47.51;101479.72;5051252;28;45448;-73
2022/06/16 04:33:56;;;;;;;;;14.67;14.67;;;;;22.46;47.34;101469.91;5040455;28;47964;-72
2022/06/16 04:36:22;;;;;;;;;17.00;15.00;;;;;22.23;47.16;101434.22;5039487;28;45588;-79
2022/06/16 04:38:48;;;;;;;;;23.00;21.33;;;;;22.48;46.97;101477.84;5040394;28;45415;-73
2022/06/16 04:41:15;;;;;;;;;14.67;14.67;;;;;22.48;47.31;101488.69;5059324;28;45601;-72
2022/06/16 04:43:41;;;;;;;;;15.67;15.67;;;;;22.37;47.10;101459.44;5050293;28;45491;-74
2022/06/16 04:46:08;;;;;;;;;19.67;19.00;;;;;22.43;47.11;101472.19;5038553;28;45220;-74
2022/06/16 04:48:34;;;;;;;;;18.00;14.67;;;;;22.26;47.36;101436.50;5038196;28;45542;-72
2022/06/16 04:51:00;;;;;;;;;15.33;14.33;;;;;22.22;47.26;101435.22;5038533;28;45420;-71
2022/06/16 04:53:25;;;;;;;;;18.67;18.33;;;;;22.42;47.41;101470.50;5038307;28;45731;-72
2022/06/16 04:56:01;;;;;;;;;17.33;15.00;;;;;22.53;46.92;101493.47;5038578;28;45483;-73
2022/06/16 04:58:28;;;;;;;;;18.00;15.67;;;;;22.49;46.87;101493.06;5039561;28;45267;-73
2022/06/16 05:00:54;;;;;;;;;19.33;16.67;;;;;22.49;46.83;101495.75;5054165;28;45512;-72
2022/06/16 05:03:21;;;;;;;;;21.33;16.67;;;;;22.36;46.99;101471.31;5042472;28;45332;-75
2022/06/16 05:05:49;;;;;;;;;15.67;15.67;;;;;22.54;46.68;101495.97;5036873;28;45439;-72
2022/06/16 05:08:16;;;;;;;;;15.67;15.00;;;;;21.72;46.52;101361.50;5038464;28;45325;-73
2022/06/16 05:10:42;;;;;;;;;15.67;14.67;;;;;22.65;46.34;101513.53;5050552;28;45282;-72
2022/06/16 05:13:08;;;;;;;;;18.00;15.33;;;;;22.65;46.58;101516.25;5031403;28;47403;-75
2022/06/16 05:15:34;;;;;;;;;19.67;18.67;;;;;21.90;46.73;101400.72;5058425;28;45183;-71
2022/06/16 05:17:59;;;;;;;;;16.33;16.33;;;;;22.67;46.50;101528.53;5058280;28;45262;-73
2022/06/16 05:20:25;;;;;;;;;22.33;18.00;;;;;22.33;46.79;101471.75;5055150;28;45265;-74
2022/06/16 05:22:50;;;;;;;;;18.00;16.00;;;;;22.40;46.44;101478.84;5037419;28;46596;-73
2022/06/16 05:25:16;;;;;;;;;19.33;16.33;;;;;22.73;46.12;101545.84;5036985;28;45551;-74
2022/06/16 05:27:41;;;;;;;;;20.00;19.00;;;;;22.23;46.51;101464.00;5038197;28;45511;-74
2022/06/16 05:30:07;;;;;;;;;21.00;18.67;;;;;22.68;46.22;101538.34;5037664;28;45328;-73
2022/06/16 05:32:33;;;;;;;;;15.67;15.67;;;;;22.81;46.22;101558.38;5019839;28;47703;-73
2022/06/16 05:34:58;;;;;;;;;20.00;18.00;;;;;22.76;45.98;101556.28;5019826;28;45457;-72
2022/06/16 05:37:24;;;;;;;;;18.00;17.33;;;;;22.66;46.00;101543.16;5038093;28;45376;-72
2022/06/16 05:39:49;;;;;;;;;16.67;15.67;;;;;22.81;45.80;101570.06;5037294;28;45639;-75
2022/06/16 05:42:16;;;;;;;;;23.00;21.67;;;;;22.92;45.62;101576.81;5037691;28;45509;-73
2022/06/16 05:44:42;;;;;;;;;16.67;16.67;;;;;22.78;45.56;101546.91;5036532;28;46477;-72
2022/06/16 05:47:07;;;;;;;;;19.67;18.00;;;;;22.98;45.46;101573.25;5038147;28;45206;-73
2022/06/16 05:49:33;;;;;;;;;16.67;16.67;;;;;23.30;44.78;101599.63;5038231;28;45475;-73
2022/06/16 05:52:00;;;;;;;;;16.00;16.00;;;;;23.06;43.98;101461.88;5037585;28;46475;-73
2022/06/16 05:54:25;;;;;;;;;20.33;18.67;;;;;24.44;43.03;101572.16;5037746;28;45475;-72
2022/06/16 05:56:51;;;;;;;;;21.00;18.00;;;;;24.69;42.01;101541.50;5042783;28;45421;-74
2022/06/16 05:59:16;;;;;;;;;16.00;16.00;;;;;25.23;41.10;101584.50;5047199;28;45227;-73
2022/06/16 06:01:41;;;;;;;;;24.33;20.33;;;;;25.08;40.69;101503.19;5053520;28;46651;-73
2022/06/16 06:04:07;;;;;;;;;18.67;17.33;;;;;26.06;39.67;101581.50;5037123;28;46901;-75
2022/06/16 06:06:33;;;;;;;;;21.33;19.00;;;;;26.31;38.56;101513.25;5038299;28;45514;-74
2022/06/16 06:17:18;;;;;;;;;20.67;19.33;;;;;29.16;33.37;101593.75;5038086;28;45589;-74
2022/06/16 06:19:43;;;;;;;;;14.67;13.67;;;;;29.49;32.76;101576.53;5048848;28;45451;-73
2022/06/16 06:22:13;;;;;;;;;19.00;18.67;;;;;30.03;31.95;101601.44;5019267;28;46550;-75
2022/06/16 06:24:48;;;;;;;;;20.00;18.33;;;;;30.40;31.39;101579.75;5029194;28;45319;-75
2022/06/16 06:27:35;;;;;;;;;14.67;12.67;;;;;30.95;30.56;101606.22;5047073;28;45534;-71
2022/06/16 06:30:04;;;;;;;;;14.67;14.67;;;;;31.05;29.84;101585.19;5050810;28;45531;-72
2022/06/16 06:32:30;;;;;;;;;22.00;21.00;;;;;31.11;28.89;101566.84;5037043;28;45982;-71
2022/06/16 06:34:56;;;;;;;;;18.33;18.33;;;;;31.46;29.02;101602.06;5038487;28;45552;-72
2022/06/16 06:37:24;;;;;;;;;19.67;18.33;;;;;31.62;28.43;101620.31;5035105;28;45428;-73
2022/06/16 06:39:50;;;;;;;;;19.67;19.67;;;;;31.68;29.04;101627.53;5042804;28;45468;-71
2022/06/16 06:42:15;;;;;;;;;22.33;22.33;;;;;31.43;28.61;101578.66;5056934;28;45350;-74
2022/06/16 06:44:42;;;;;;;;;20.67;18.33;;;;;31.70;28.29;101600.59;5058063;28;45346;-73
2022/06/16 06:47:09;;;;;;;;;17.00;16.00;;;;;31.29;28.09;101508.78;5056833;28;45244;-74
2022/06/16 06:49:35;;;;;;;;;21.00;19.67;;;;;31.62;27.94;101590.06;5040142;28;45309;-73
2022/06/16 06:52:00;;;;;;;;;18.67;18.00;;;;;31.77;28.02;101625.97;5060410;28;45260;-72
2022/06/16 06:54:26;;;;;;;;;21.00;20.00;;;;;31.52;28.46;101595.50;5058616;28;45482;-74
2022/06/16 06:56:51;;;;;;;;;19.67;18.67;;;;;31.43;28.29;101572.34;5039552;28;45592;-72
2022/06/16 06:59:19;;;;;;;;;17.00;17.00;;;;;31.70;28.48;101619.84;5057413;28;45598;-71
2022/06/16 07:01:49;;;;;;;;;22.33;21.33;;;;;31.80;27.90;101641.09;5056508;28;46477;-73
2022/06/16 07:04:16;;;;;;;;;21.33;21.00;;;;;31.78;27.92;101635.88;5056860;28;45594;-73
2022/06/16 07:06:41;;;;;;;;;18.33;18.00;;;;;31.47;28.01;101609.22;5038990;28;45351;-72
2022/06/16 07:09:09;;;;;;;;;21.00;19.33;;;;;31.51;27.82;101640.59;5057630;28;45419;-73
2022/06/16 07:11:34;;;;;;;;;19.00;17.67;;;;;31.20;27.44;101605.66;5057037;28;45732;-73
2022/06/16 07:14:00;;;;;;;;;17.33;16.67;;;;;31.06;28.05;101630.78;5057204;28;45265;-73
2022/06/16 07:16:25;;;;;;;;;18.67;17.00;;;;;31.09;27.93;101655.00;5057287;28;45538;-75
2022/06/16 07:18:50;;;;;;;;;16.67;14.33;;;;;30.99;27.51;101665.03;5043466;28;45581;-73
2022/06/16 07:21:16;;;;;;;;;17.67;17.67;;;;;30.48;27.18;101607.59;5037793;28;46284;-73
2022/06/16 07:23:43;;;;;;;;;16.00;15.67;;;;;30.13;27.98;101579.69;5038328;28;45916;-72
2022/06/16 07:26:12;;;;;;;;;19.33;17.33;;;;;30.57;28.08;101671.09;5053335;28;45730;-71
2022/06/16 07:28:38;;;;;;;;;16.33;15.67;;;;;30.44;28.67;101644.03;5077071;28;45383;-74
2022/06/16 07:31:03;;;;;;;;;15.33;15.33;;;;;30.35;28.04;101638.16;5079765;28;46770;-74
2022/06/16 07:33:29;;;;;;;;;18.67;17.67;;;;;30.46;27.67;101670.13;5080971;28;45298;-73
2022/06/16 07:35:55;;;;;;;;;15.33;15.00;;;;;29.78;27.69;101634.81;5064980;28;45467;-73
2022/06/16 07:38:25;;;;;;;;;18.67;16.67;;;;;29.99;28.50;101681.47;5062888;28;45293;-72
2022/06/16 07:40:52;;;;;;;;;14.33;11.67;;;;;29.92;27.86;101669.88;5081801;28;45584;-71
2022/06/16 07:43:18;;;;;;;;;17.33;17.33;;;;;30.00;28.03;101682.31;5080179;28;45572;-74
2022/06/16 07:45:45;;;;;;;;;15.67;14.67;;;;;29.92;28.47;101678.09;5080063;28;45446;-73
2022/06/16 07:48:11;;;;;;;;;17.33;15.33;;;;;29.80;28.85;101685.56;5057156;28;45260;-72
2022/06/16 07:50:36;;;;;;;;;15.33;14.33;;;;;29.77;28.00;101675.09;5039891;28;45800;-74
2022/06/16 07:53:05;;;;;;;;;12.67;12.33;;;;;29.80;28.69;101682.00;5039670;28;45516;-75
2022/06/16 07:55:31;;;;;;;;;13.33;13.00;;;;;29.94;29.26;101688.81;5040083;28;45306;-72
2022/06/16 07:57:57;;;;;;;;;10.67;10.67;;;;;29.96;27.66;101668.28;5021641;28;45401;-73
2022/06/16 08:00:27;;;;;;;;;8.67;7.67;;;;;29.74;27.75;101661.91;5068860;28;46300;-68
2022/06/16 08:02:55;;;;;;;;;15.00;11.00;;;;;29.54;28.03;101636.88;5061652;28;45594;-72
2022/06/16 08:05:21;;;;;;;;;13.00;13.00;;;;;29.75;27.57;101674.53;5039786;28;45324;-73
2022/06/16 08:07:47;;;;;;;;;14.67;13.67;;;;;29.59;27.55;101669.84;5038330;28;45516;-74
2022/06/16 08:10:18;;;;;;;;;15.00;14.33;;;;;29.03;27.56;101567.50;5040408;28;46823;-73
2022/06/16 08:12:43;;;;;;;;;14.00;14.00;;;;;29.72;27.79;101658.56;5047996;28;45748;-71
2022/06/16 08:15:10;;;;;;;;;11.00;11.00;;;;;27.39;26.44;101291.94;5048986;28;45548;-72
2022/06/16 08:17:39;;;;;;;;;10.33;10.33;;;;;29.61;26.63;101651.25;5059945;28;45563;-73
2022/06/16 08:20:05;;;;;;;;;13.00;12.00;;;;;29.61;26.18;101662.22;5038920;28;45600;-72
2022/06/16 08:22:32;;;;;;;;;10.67;9.67;;;;;29.74;25.21;101678.34;5039312;28;45327;-74
2022/06/16 08:24:57;;;;;;;;;13.33;11.67;;;;;29.76;25.22;101687.13;5040249;28;45463;-74
2022/06/16 08:27:28;;;;;;;;;12.00;10.67;;;;;29.76;26.40;101686.31;5040375;28;45491;-72
2022/06/16 08:29:54;;;;;;;;;11.00;11.00;;;;;29.67;25.48;101688.66;5045084;28;45870;-78
2022/06/16 08:32:21;;;;;;;;;10.67;8.67;;;;;29.50;25.78;101643.97;5076861;28;45277;-72
2022/06/16 08:34:48;;;;;;;;;10.00;10.00;;;;;29.82;26.41;101686.13;5079888;28;45460;-72
2022/06/16 08:37:16;;;;;;;;;11.67;11.67;;;;;29.82;24.63;101688.88;5080235;28;45273;-73
2022/06/16 08:39:42;;;;;;;;;10.33;10.33;;;;;29.20;23.88;101600.38;5049593;28;45918;-73
2022/06/16 08:42:09;;;;;;;;;8.67;8.67;;;;;29.79;25.22;101678.41;5026522;28;45316;-73
2022/06/16 08:44:50;;;;;;;;;11.33;9.33;;;;;29.89;24.73;101692.31;5041745;28;45412;-74
2022/06/16 08:47:26;;;;;;;;;11.67;10.67;;;;;29.97;24.86;101669.94;5054000;28;45515;-73
2022/06/16 08:50:10;;;;;;;;;9.67;9.67;;;;;30.10;24.24;101695.41;5038730;28;45669;-76
2022/06/16 08:52:45;;;;;;;;;10.67;10.67;;;;;30.08;23.16;101686.59;5036952;28;45412;-74
2022/06/16 08:55:29;;;;;;;;;9.00;8.00;;;;;29.99;23.03;101700.69;5038271;28;45324;-75
2022/06/16 08:58:32;;;;;;;;;7.00;7.00;;;;;29.98;24.36;101696.28;5040270;28;45295;-75
2022/06/16 09:01:12;;;;;;;;;11.00;11.00;;;;;30.08;23.52;101684.69;5044644;28;47454;-74
2022/06/16 09:03:53;;;;;;;;;11.00;8.67;;;;;30.14;23.65;101689.16;5037528;28;45703;-73
2022/06/16 09:07:09;;;;;;;;;9.33;8.33;;;;;30.14;22.76;101677.34;5038701;28;45262;-73
2022/06/16 09:13:05;;;;;;;;;11.00;7.67;;;;;29.99;23.85;101681.47;5050223;28;45760;-73
2022/06/16 09:15:38;;;;;;;;;9.67;9.67;;;;;29.54;24.57;101590.31;5054529;28;45479;-75
2022/06/16 09:18:03;;;;;;;;;12.00;12.00;;;;;30.14;23.61;101680.09;5038652;28;45443;-76
2022/06/16 09:20:40;;;;;;;;;10.00;9.00;;;;;30.05;23.75;101667.91;5043822;28;45486;-73
2022/06/16 09:23:25;;;;;;;;;5.67;5.67;;;;;30.24;24.14;101688.50;5021004;28;47451;-73
2022/06/16 09:26:06;;;;;;;;;10.00;10.00;;;;;30.34;23.82;101687.78;5039287;28;45837;-74
2022/06/16 09:28:37;;;;;;;;;10.00;9.00;;;;;28.70;23.79;101426.78;5041123;28;45489;-75
2022/06/16 09:31:10;;;;;;;;;11.33;9.00;;;;;30.29;24.03;101658.38;5038887;28;45234;-70
2022/06/16 09:33:42;;;;;;;;;9.00;8.00;;;;;30.26;23.16;101662.47;5020947;28;46242;-73
2022/06/16 09:36:27;;;;;;;;;9.00;9.00;;;;;30.25;22.47;101679.19;5042576;28;45489;-76
2022/06/16 09:39:09;;;;;;;;;8.00;8.00;;;;;30.02;24.02;101668.34;5038851;28;45511;-73
2022/06/16 09:44:45;;;;;;;;;6.67;6.00;;;;;30.08;23.04;101678.38;5037916;28;45677;-78
2022/06/16 09:47:14;;;;;;;;;8.67;8.00;;;;;29.96;23.42;101653.72;5019725;28;45720;-73
2022/06/16 09:49:45;;;;;;;;;9.00;9.00;;;;;30.01;22.93;101666.69;5037831;28;45479;-73
2022/06/16 09:52:26;;;;;;;;;12.33;8.33;;;;;28.62;23.36;101443.56;5038481;28;45416;-73
2022/06/16 09:55:01;;;;;;;;;8.00;8.00;;;;;29.66;23.37;101634.91;5038864;28;45694;-73
2022/06/16 09:57:43;;;;;;;;;8.00;8.00;;;;;29.84;22.85;101664.81;5037801;28;45450;-72
2022/06/16 10:00:18;;;;;;;;;7.67;7.33;;;;;29.24;23.29;101607.88;5038228;28;45239;-71
2022/06/16 10:02:52;;;;;;;;;7.67;7.67;;;;;28.71;23.24;101548.84;5040511;28;45647;-75
2022/06/16 10:05:40;;;;;;;;;10.00;9.00;;;;;28.51;23.73;101523.81;5057096;28;45796;-75
2022/06/16 10:08:19;;;;;;;;;6.33;6.33;;;;;29.43;23.44;101665.16;5057586;28;45544;-73
2022/06/16 10:11:17;;;;;;;;;7.33;7.33;;;;;29.25;23.11;101644.31;5057850;28;45420;-72
2022/06/16 10:13:50;;;;;;;;;8.67;8.67;;;;;29.33;23.68;101674.84;5039507;28;45282;-72
2022/06/16 10:16:22;;;;;;;;;7.00;7.00;;;;;29.05;23.15;101650.25;5057471;28;46805;-74
2022/06/16 10:18:51;;;;;;;;;7.00;7.00;;;;;28.77;23.85;101621.75;5056138;28;46021;-74
2022/06/16 10:21:17;;;;;;;;;7.33;7.00;;;;;28.92;23.39;101647.78;5057426;28;45312;-72
2022/06/16 10:23:57;;;;;;;;;10.33;8.00;;;;;28.94;23.32;101653.84;5052825;28;45550;-71
2022/06/16 10:26:23;;;;;;;;;10.67;10.00;;;;;28.88;23.90;101638.41;5038060;28;45563;-73
2022/06/16 10:29:13;;;;;;;;;8.00;8.00;;;;;29.05;23.09;101663.94;5019717;28;45356;-74
2022/06/16 10:31:43;;;;;;;;;8.00;8.00;;;;;28.99;23.41;101673.09;5019111;28;45349;-75
2022/06/16 10:34:31;;;;;;;;;8.00;7.33;;;;;28.94;23.20;101665.63;5036357;28;45487;-76
2022/06/16 10:37:05;;;;;;;;;6.67;6.67;;;;;28.24;23.82;101556.34;5021568;28;46721;-78
2022/06/16 10:39:43;;;;;;;;;8.00;8.00;;;;;28.25;23.91;101570.84;5047088;28;45305;-75
2022/06/16 10:42:17;;;;;;;;;9.00;8.67;;;;;28.80;24.34;101661.47;5040684;28;45309;-76
2022/06/16 10:44:50;;;;;;;;;11.33;10.33;;;;;28.75;23.77;101632.09;5052230;28;45514;-74
2022/06/16 10:47:24;;;;;;;;;11.00;8.00;;;;;28.82;23.76;101653.00;5040508;28;46479;-78
2022/06/16 10:49:51;;;;;;;;;10.00;9.67;;;;;28.78;23.91;101642.56;5023539;28;46151;-76
2022/06/16 10:52:34;;;;;;;;;10.00;10.00;;;;;28.48;24.11;101598.19;5019733;28;45431;-74
2022/06/16 10:55:05;;;;;;;;;9.33;9.33;;;;;28.75;23.92;101647.69;5042557;28;45266;-76
2022/06/16 10:57:40;;;;;;;;;10.33;8.67;;;;;28.72;23.49;101657.22;5058363;28;45743;-76
2022/06/16 11:00:21;;;;;;;;;8.00;8.00;;;;;28.45;23.74;101626.84;5052086;28;46570;-74
2022/06/16 11:02:58;;;;;;;;;9.00;8.00;;;;;28.59;24.56;101648.44;5037596;28;45308;-75
2022/06/16 11:05:25;;;;;;;;;9.33;7.00;;;;;27.76;25.05;101523.84;5039259;28;45203;-75
2022/06/16 11:07:51;;;;;;;;;10.00;8.33;;;;;28.50;24.39;101644.44;5039517;28;47552;-74
2022/06/16 11:10:33;;;;;;;;;7.67;6.33;;;;;28.33;25.21;101644.34;5052016;28;45526;-73
2022/06/16 11:12:59;;;;;;;;;8.00;8.00;;;;;28.42;25.52;101642.88;5044019;28;45346;-74
2022/06/16 11:15:33;;;;;;;;;11.00;9.33;;;;;28.20;25.16;101628.97;5047599;28;44807;-74
2022/06/16 11:18:02;;;;;;;;;11.00;10.00;;;;;28.22;25.85;101642.41;5061349;28;46604;-77
2022/06/16 11:20:44;;;;;;;;;11.67;11.00;;;;;28.02;25.70;101599.88;5036456;28;45409;-75
2022/06/16 11:23:27;;;;;;;;;10.00;9.00;;;;;28.32;25.46;101653.63;5058926;28;45435;-74
2022/06/16 11:26:09;;;;;;;;;7.67;7.00;;;;;28.23;24.57;101635.88;5045471;28;45401;-75
2022/06/16 11:28:48;;;;;;;;;9.00;8.00;;;;;28.29;24.71;101656.84;5049764;28;47038;-74
2022/06/16 11:31:23;;;;;;;;;9.67;8.67;;;;;28.17;24.79;101626.72;5061752;28;45260;-76
2022/06/16 11:34:06;;;;;;;;;11.00;11.00;;;;;28.42;25.97;101660.13;5060863;28;45213;-75
2022/06/16 11:36:51;;;;;;;;;12.67;10.33;;;;;28.35;25.48;101653.13;5043973;28;45514;-77
2022/06/16 11:39:25;;;;;;;;;8.67;8.67;;;;;26.63;25.32;101372.91;5031155;28;45556;-74
2022/06/16 11:41:53;;;;;;;;;8.00;8.00;;;;;28.30;24.93;101653.03;5022969;28;45493;-73
2022/06/16 11:44:24;;;;;;;;;8.33;6.33;;;;;28.25;24.79;101652.91;5040748;28;45221;-74
2022/06/16 11:47:11;;;;;;;;;8.33;8.33;;;;;28.26;23.70;101647.22;5040171;28;45361;-74
2022/06/16 11:50:04;;;;;;;;;10.00;10.00;;;;;28.03;24.49;101622.56;5020285;28;45612;-75
2022/06/16 11:53:00;;;;;;;;;9.67;9.33;;;;;28.22;24.51;101656.06;5021203;28;45498;-74